Du har inga inställningar för hoppväder.nu

Hoppväder.nu

Senast uppdaterat 03:47

UTC-tid

2018-04-26 kl. 01:47


Sol och måne

Solen går upp 4:27 och går ner 20:45 (beräknade cirkatider)
Nästa fullmåne blir om 4 dagar (2018-04-30)

METAR

ESNU (Umeå)
(27 minuter sedan)
ESNU 260120Z 30004KT CAVOK 03/M01 Q0992 RWY 14 CONTAMINATION CEASED=



ESNO (Örnsköldsvik)
(27 minuter sedan)
ESNO 260120Z AUTO 30013KT 9999 BKN049/// OVC062/// 03/M01 Q0993=



ESNS (Skellefteå)
(27 minuter sedan)
ESNS 260120Z AUTO 25005KT 9999 NCD 01/M01 Q0991=









TAF

ESNU (Umeå)
(1577 minuter sedan)
ESNU 252330Z 2600/2609 32007KT CAVOK=



ESNO (Örnsköldsvik)
(1607 minuter sedan)
ESNO 252300Z NIL=



ESNS (Skellefteå)
(1607 minuter sedan)
ESNS 252300Z NIL=





Kodnycklar till TAF och METAR






LHP

(Umeå är område A1c i Norra delen)

Prognos är inte uppdaterad




Spotting

Hur fungerar spotthjälpen och Vindkartan?

Markvind är ca 0 m/s.



Vindkartan

Senast uppdaterad 03:47



All data kommer från LFV.se